sensor_id;sensor_type;location;lat;lon;timestamp;pressure;altitude;pressure_sealevel;temperature;humidity
44359;BME280;30077;52.474;13.326;2022-10-12T00:02:34;102000.03;;;6.85;100.00
44359;BME280;30077;52.474;13.326;2022-10-12T00:07:35;102004.50;;;6.83;100.00
44359;BME280;30077;52.474;13.326;2022-10-12T00:12:35;101994.78;;;6.79;100.00
44359;BME280;30077;52.474;13.326;2022-10-12T00:17:35;102008.03;;;6.79;100.00
44359;BME280;30077;52.474;13.326;2022-10-12T00:22:36;102001.00;;;6.76;100.00
44359;BME280;30077;52.474;13.326;2022-10-12T00:27:36;102009.84;;;6.73;100.00
44359;BME280;30077;52.474;13.326;2022-10-12T00:32:36;102004.56;;;6.73;100.00
44359;BME280;30077;52.474;13.326;2022-10-12T00:37:36;102003.72;;;6.68;100.00
44359;BME280;30077;52.474;13.326;2022-10-12T00:42:37;102002.84;;;6.66;100.00
44359;BME280;30077;52.474;13.326;2022-10-12T00:47:40;102001.09;;;6.64;100.00
44359;BME280;30077;52.474;13.326;2022-10-12T00:57:48;102014.41;;;6.53;100.00
44359;BME280;30077;52.474;13.326;2022-10-12T01:02:52;102014.47;;;6.50;100.00
44359;BME280;30077;52.474;13.326;2022-10-12T01:07:53;102019.75;;;6.50;100.00
44359;BME280;30077;52.474;13.326;2022-10-12T01:12:53;102016.19;;;6.49;100.00
44359;BME280;30077;52.474;13.326;2022-10-12T01:18:05;102015.34;;;6.46;100.00
44359;BME280;30077;52.474;13.326;2022-10-12T01:33:50;102022.47;;;6.39;100.00
44359;BME280;30077;52.474;13.326;2022-10-12T01:39:00;102019.81;;;6.39;100.00
44359;BME280;30077;52.474;13.326;2022-10-12T01:44:03;102023.38;;;6.37;100.00
44359;BME280;30077;52.474;13.326;2022-10-12T01:49:04;102020.72;;;6.37;100.00
44359;BME280;30077;52.474;13.326;2022-10-12T01:59:42;102027.84;;;6.29;100.00
44359;BME280;30077;52.474;13.326;2022-10-12T02:04:50;102019.00;;;6.26;100.00
44359;BME280;30077;52.474;13.326;2022-10-12T02:09:53;102011.09;;;6.22;100.00
44359;BME280;30077;52.474;13.326;2022-10-12T02:14:59;102010.22;;;6.18;100.00
44359;BME280;30077;52.474;13.326;2022-10-12T02:20:02;102012.00;;;6.16;100.00
44359;BME280;30077;52.474;13.326;2022-10-12T02:25:05;102007.59;;;6.14;100.00
44359;BME280;30077;52.474;13.326;2022-10-12T02:30:08;102001.44;;;6.10;100.00
44359;BME280;30077;52.474;13.326;2022-10-12T02:35:19;102000.53;;;6.10;100.00
44359;BME280;30077;52.474;13.326;2022-10-12T02:40:29;102004.09;;;6.09;100.00
44359;BME280;30077;52.474;13.326;2022-10-12T02:45:31;101994.38;;;6.06;100.00
44359;BME280;30077;52.474;13.326;2022-10-12T02:50:34;101994.38;;;6.06;100.00
44359;BME280;30077;52.474;13.326;2022-10-12T02:55:46;101986.44;;;6.05;100.00
44359;BME280;30077;52.474;13.326;2022-10-12T03:00:47;101990.91;;;5.96;100.00
44359;BME280;30077;52.474;13.326;2022-10-12T03:05:47;101984.72;;;5.96;100.00
44359;BME280;30077;52.474;13.326;2022-10-12T03:10:47;101987.41;;;5.93;100.00
44359;BME280;30077;52.474;13.326;2022-10-12T03:15:48;101986.53;;;5.92;100.00
44359;BME280;30077;52.474;13.326;2022-10-12T03:20:48;101983.81;;;5.91;100.00
44359;BME280;30077;52.474;13.326;2022-10-12T03:25:48;101977.66;;;5.89;100.00
44359;BME280;30077;52.474;13.326;2022-10-12T03:30:49;101987.38;;;5.87;100.00
44359;BME280;30077;52.474;13.326;2022-10-12T03:35:49;101980.34;;;5.83;100.00
44359;BME280;30077;52.474;13.326;2022-10-12T03:40:50;101975.06;;;5.79;100.00
44359;BME280;30077;52.474;13.326;2022-10-12T03:45:50;101975.06;;;5.76;100.00
44359;BME280;30077;52.474;13.326;2022-10-12T03:50:51;101973.31;;;5.72;100.00
44359;BME280;30077;52.474;13.326;2022-10-12T03:55:52;101973.34;;;5.71;100.00
44359;BME280;30077;52.474;13.326;2022-10-12T04:00:53;101975.09;;;5.70;100.00
44359;BME280;30077;52.474;13.326;2022-10-12T04:05:54;101978.63;;;5.69;100.00
44359;BME280;30077;52.474;13.326;2022-10-12T04:10:55;101983.03;;;5.72;100.00
44359;BME280;30077;52.474;13.326;2022-10-12T04:16:00;101988.34;;;5.67;100.00
44359;BME280;30077;52.474;13.326;2022-10-12T04:21:00;101988.38;;;5.61;100.00
44359;BME280;30077;52.474;13.326;2022-10-12T04:26:01;101983.09;;;5.57;100.00
44359;BME280;30077;52.474;13.326;2022-10-12T04:31:01;101989.25;;;5.57;100.00
44359;BME280;30077;52.474;13.326;2022-10-12T04:36:01;101986.63;;;5.55;100.00
44359;BME280;30077;52.474;13.326;2022-10-12T04:41:02;101981.31;;;5.57;100.00
44359;BME280;30077;52.474;13.326;2022-10-12T04:46:02;101984.88;;;5.56;100.00
44359;BME280;30077;52.474;13.326;2022-10-12T04:51:03;101993.72;;;5.49;100.00
44359;BME280;30077;52.474;13.326;2022-10-12T04:56:04;102005.19;;;5.45;100.00
44359;BME280;30077;52.474;13.326;2022-10-12T05:01:05;101999.00;;;5.43;100.00
44359;BME280;30077;52.474;13.326;2022-10-12T05:06:05;102001.66;;;5.37;100.00
44359;BME280;30077;52.474;13.326;2022-10-12T05:11:06;101996.38;;;5.37;100.00
44359;BME280;30077;52.474;13.326;2022-10-12T05:16:06;102000.78;;;5.39;100.00
44359;BME280;30077;52.474;13.326;2022-10-12T05:21:06;102005.19;;;5.39;100.00
44359;BME280;30077;52.474;13.326;2022-10-12T05:26:06;102002.53;;;5.39;100.00
44359;BME280;30077;52.474;13.326;2022-10-12T05:31:07;102000.78;;;5.36;100.00
44359;BME280;30077;52.474;13.326;2022-10-12T05:36:07;102006.09;;;5.35;100.00
44359;BME280;30077;52.474;13.326;2022-10-12T05:41:07;102004.31;;;5.37;100.00
44359;BME280;30077;52.474;13.326;2022-10-12T05:46:08;102006.94;;;5.40;100.00
44359;BME280;30077;52.474;13.326;2022-10-12T05:51:08;102006.94;;;5.43;100.00
44359;BME280;30077;52.474;13.326;2022-10-12T05:56:08;102006.94;;;5.49;100.00
44359;BME280;30077;52.474;13.326;2022-10-12T06:01:11;102009.53;;;5.55;100.00
44359;BME280;30077;52.474;13.326;2022-10-12T06:06:11;102012.19;;;5.61;100.00
44359;BME280;30077;52.474;13.326;2022-10-12T06:11:11;102010.41;;;5.66;100.00
44359;BME280;30077;52.474;13.326;2022-10-12T06:16:12;102013.00;;;5.77;100.00
44359;BME280;30077;52.474;13.326;2022-10-12T06:21:12;102019.16;;;5.87;100.00
44359;BME280;30077;52.474;13.326;2022-10-12T06:26:13;102026.22;;;5.97;100.00
44359;BME280;30077;52.474;13.326;2022-10-12T06:31:13;102040.28;;;6.08;100.00
44359;BME280;30077;52.474;13.326;2022-10-12T06:36:14;102033.16;;;6.22;100.00
44359;BME280;30077;52.474;13.326;2022-10-12T06:41:14;102034.84;;;6.40;100.00
44359;BME280;30077;52.474;13.326;2022-10-12T06:46:14;102027.63;;;6.59;100.00
44359;BME280;30077;52.474;13.326;2022-10-12T06:51:14;102033.69;;;6.78;100.00
44359;BME280;30077;52.474;13.326;2022-10-12T06:56:15;102034.47;;;6.94;100.00
44359;BME280;30077;52.474;13.326;2022-10-12T07:01:15;102030.75;;;7.13;100.00
44359;BME280;30077;52.474;13.326;2022-10-12T07:06:16;102027.91;;;7.33;100.00
44359;BME280;30077;52.474;13.326;2022-10-12T07:11:16;102033.03;;;7.50;100.00
44359;BME280;30077;52.474;13.326;2022-10-12T07:16:16;102042.63;;;7.66;100.00
44359;BME280;30077;52.474;13.326;2022-10-12T07:21:16;102041.47;;;7.87;100.00
44359;BME280;30077;52.474;13.326;2022-10-12T07:26:17;102043.88;;;8.10;100.00
44359;BME280;30077;52.474;13.326;2022-10-12T07:31:17;102033.78;;;8.34;100.00
44359;BME280;30077;52.474;13.326;2022-10-12T07:36:17;102042.38;;;8.57;100.00
44359;BME280;30077;52.474;13.326;2022-10-12T07:41:18;102042.84;;;8.84;99.47
44359;BME280;30077;52.474;13.326;2022-10-12T07:46:18;102043.41;;;9.03;97.97
44359;BME280;30077;52.474;13.326;2022-10-12T07:51:18;102036.81;;;9.25;97.29
44359;BME280;30077;52.474;13.326;2022-10-12T07:56:19;102040.06;;;9.44;95.50
44359;BME280;30077;52.474;13.326;2022-10-12T08:01:22;102036.97;;;9.65;94.43
44359;BME280;30077;52.474;13.326;2022-10-12T08:06:26;102036.69;;;9.81;94.97
44359;BME280;30077;52.474;13.326;2022-10-12T08:11:27;102039.34;;;9.81;95.14
44359;BME280;30077;52.474;13.326;2022-10-12T08:16:27;102042.75;;;9.87;94.79
44359;BME280;30077;52.474;13.326;2022-10-12T08:21:28;102047.75;;;10.04;93.70
44359;BME280;30077;52.474;13.326;2022-10-12T08:26:28;102040.31;;;10.19;92.30
44359;BME280;30077;52.474;13.326;2022-10-12T08:31:29;102040.19;;;10.28;92.18
44359;BME280;30077;52.474;13.326;2022-10-12T08:36:29;102040.66;;;10.45;91.16
44359;BME280;30077;52.474;13.326;2022-10-12T08:46:36;102036.31;;;10.80;88.02
44359;BME280;30077;52.474;13.326;2022-10-12T08:51:46;102033.97;;;11.02;86.77
44359;BME280;30077;52.474;13.326;2022-10-12T08:56:48;102039.13;;;11.09;86.39
44359;BME280;30077;52.474;13.326;2022-10-12T09:02:00;102030.63;;;11.28;84.55
44359;BME280;30077;52.474;13.326;2022-10-12T09:07:12;102029.41;;;11.41;83.44
44359;BME280;30077;52.474;13.326;2022-10-12T09:17:42;102029.56;;;11.68;82.22
44359;BME280;30077;52.474;13.326;2022-10-12T09:22:48;102024.94;;;11.74;79.64
44359;BME280;30077;52.474;13.326;2022-10-12T09:27:49;102025.63;;;11.81;79.47
44359;BME280;30077;52.474;13.326;2022-10-12T09:38:00;102016.88;;;12.07;77.75
44359;BME280;30077;52.474;13.326;2022-10-12T09:43:02;102014.66;;;12.21;76.61
44359;BME280;30077;52.474;13.326;2022-10-12T09:48:18;102005.28;;;12.36;75.95
44359;BME280;30077;52.474;13.326;2022-10-12T09:53:29;102002.44;;;12.42;74.53
44359;BME280;30077;52.474;13.326;2022-10-12T09:58:40;102002.09;;;12.53;73.93
44359;BME280;30077;52.474;13.326;2022-10-12T10:03:42;102003.41;;;12.68;72.80
44359;BME280;30077;52.474;13.326;2022-10-12T10:08:44;102008.44;;;12.77;72.58
44359;BME280;30077;52.474;13.326;2022-10-12T10:13:52;102004.81;;;12.78;72.43
44359;BME280;30077;52.474;13.326;2022-10-12T10:23:59;101990.72;;;12.99;71.21
44359;BME280;30077;52.474;13.326;2022-10-12T10:29:15;101991.28;;;13.09;71.19
44359;BME280;30077;52.474;13.326;2022-10-12T10:39:19;101985.28;;;13.29;70.70
44359;BME280;30077;52.474;13.326;2022-10-12T10:44:25;101994.03;;;13.34;70.66
44359;BME280;30077;52.474;13.326;2022-10-12T10:49:35;101991.94;;;13.42;69.97
44359;BME280;30077;52.474;13.326;2022-10-12T10:54:36;101983.47;;;13.55;69.31
44359;BME280;30077;52.474;13.326;2022-10-12T10:59:55;101973.34;;;13.63;69.02
44359;BME280;30077;52.474;13.326;2022-10-12T11:05:03;101981.75;;;13.77;68.64
44359;BME280;30077;52.474;13.326;2022-10-12T11:10:15;101967.94;;;13.88;67.98
44359;BME280;30077;52.474;13.326;2022-10-12T11:15:24;101964.84;;;13.99;66.90
44359;BME280;30077;52.474;13.326;2022-10-12T11:20:30;101957.25;;;14.10;66.42
44359;BME280;30077;52.474;13.326;2022-10-12T11:25:41;101950.84;;;14.12;66.12
44359;BME280;30077;52.474;13.326;2022-10-12T11:30:48;101940.03;;;14.37;65.06
44359;BME280;30077;52.474;13.326;2022-10-12T11:35:52;101935.56;;;14.60;62.96
44359;BME280;30077;52.474;13.326;2022-10-12T11:41:14;101929.44;;;14.78;62.57
44359;BME280;30077;52.474;13.326;2022-10-12T11:46:20;101922.41;;;14.74;62.59
44359;BME280;30077;52.474;13.326;2022-10-12T11:51:22;101924.19;;;14.75;62.24
44359;BME280;30077;52.474;13.326;2022-10-12T11:56:41;101911.53;;;14.57;62.96
44359;BME280;30077;52.474;13.326;2022-10-12T12:02:11;101913.03;;;14.64;62.30
44359;BME280;30077;52.474;13.326;2022-10-12T12:12:28;101895.28;;;14.80;60.90
44359;BME280;30077;52.474;13.326;2022-10-12T12:17:30;101896.56;;;14.72;60.34
44359;BME280;30077;52.474;13.326;2022-10-12T12:22:47;101888.44;;;14.73;60.15
44359;BME280;30077;52.474;13.326;2022-10-12T12:27:51;101884.16;;;14.89;59.70
44359;BME280;30077;52.474;13.326;2022-10-12T12:33:02;101879.03;;;14.83;59.89
44359;BME280;30077;52.474;13.326;2022-10-12T12:38:13;101890.34;;;14.71;59.71
44359;BME280;30077;52.474;13.326;2022-10-12T12:43:36;101877.31;;;14.82;59.59
44359;BME280;30077;52.474;13.326;2022-10-12T12:54:00;101880.13;;;14.79;58.95
44359;BME280;30077;52.474;13.326;2022-10-12T13:20:28;101854.53;;;14.49;60.61
44359;BME280;30077;52.474;13.326;2022-10-12T13:25:32;101859.09;;;14.47;60.73
44359;BME280;30077;52.474;13.326;2022-10-12T13:30:43;101841.50;;;14.39;60.17
44359;BME280;30077;52.474;13.326;2022-10-12T13:36:03;101847.13;;;14.33;61.22
44359;BME280;30077;52.474;13.326;2022-10-12T13:41:13;101833.81;;;14.30;61.06
44359;BME280;30077;52.474;13.326;2022-10-12T13:51:34;101833.03;;;14.28;61.31
44359;BME280;30077;52.474;13.326;2022-10-12T13:56:34;101826.19;;;14.21;61.37
44359;BME280;30077;52.474;13.326;2022-10-12T14:01:47;101820.69;;;14.24;61.45
44359;BME280;30077;52.474;13.326;2022-10-12T14:06:54;101814.56;;;14.20;61.74
44359;BME280;30077;52.474;13.326;2022-10-12T14:11:56;101813.25;;;14.09;62.14
44359;BME280;30077;52.474;13.326;2022-10-12T14:16:56;101800.34;;;13.96;62.61
44359;BME280;30077;52.474;13.326;2022-10-12T14:21:57;101798.97;;;13.86;63.05
44359;BME280;30077;52.474;13.326;2022-10-12T14:27:04;101792.81;;;13.84;62.66
44359;BME280;30077;52.474;13.326;2022-10-12T14:32:24;101788.06;;;13.69;63.44
44359;BME280;30077;52.474;13.326;2022-10-12T14:37:29;101793.97;;;13.55;63.48
44359;BME280;30077;52.474;13.326;2022-10-12T14:47:36;101782.16;;;13.37;64.03
44359;BME280;30077;52.474;13.326;2022-10-12T14:52:38;101780.53;;;13.33;64.24
44359;BME280;30077;52.474;13.326;2022-10-12T14:57:41;101783.34;;;13.30;64.86
44359;BME280;30077;52.474;13.326;2022-10-12T15:02:41;101774.81;;;13.19;65.10
44359;BME280;30077;52.474;13.326;2022-10-12T15:07:42;101768.84;;;13.11;65.13
44359;BME280;30077;52.474;13.326;2022-10-12T15:12:42;101767.63;;;12.96;65.33
44359;BME280;30077;52.474;13.326;2022-10-12T15:17:43;101765.22;;;12.88;65.41
44359;BME280;30077;52.474;13.326;2022-10-12T15:22:43;101759.41;;;12.77;66.19
44359;BME280;30077;52.474;13.326;2022-10-12T15:27:43;101756.31;;;12.64;66.72
44359;BME280;30077;52.474;13.326;2022-10-12T15:32:44;101747.66;;;12.56;67.08
44359;BME280;30077;52.474;13.326;2022-10-12T15:37:44;101749.09;;;12.41;67.24
44359;BME280;30077;52.474;13.326;2022-10-12T15:42:45;101749.47;;;12.31;67.76
44359;BME280;30077;52.474;13.326;2022-10-12T15:47:46;101746.00;;;12.27;67.85
44359;BME280;30077;52.474;13.326;2022-10-12T15:52:47;101740.91;;;12.21;68.11
44359;BME280;30077;52.474;13.326;2022-10-12T15:57:47;101740.44;;;12.08;68.89
44359;BME280;30077;52.474;13.326;2022-10-12T16:02:48;101743.56;;;11.94;69.77
44359;BME280;30077;52.474;13.326;2022-10-12T16:07:48;101737.78;;;11.80;70.51
44359;BME280;30077;52.474;13.326;2022-10-12T16:12:50;101743.53;;;11.68;71.14
44359;BME280;30077;52.474;13.326;2022-10-12T16:17:51;101739.63;;;11.51;72.13
44359;BME280;30077;52.474;13.326;2022-10-12T16:22:51;101731.06;;;11.40;72.77
44359;BME280;30077;52.474;13.326;2022-10-12T16:27:53;101736.84;;;11.26;74.15
44359;BME280;30077;52.474;13.326;2022-10-12T16:32:54;101738.91;;;11.17;75.47
44359;BME280;30077;52.474;13.326;2022-10-12T16:37:55;101746.44;;;11.02;76.98
44359;BME280;30077;52.474;13.326;2022-10-12T16:42:55;101730.81;;;10.90;78.38
44359;BME280;30077;52.474;13.326;2022-10-12T16:47:56;101734.50;;;10.86;79.04
44359;BME280;30077;52.474;13.326;2022-10-12T16:52:56;101724.16;;;10.74;80.07
44359;BME280;30077;52.474;13.326;2022-10-12T16:57:56;101731.50;;;10.66;80.89
44359;BME280;30077;52.474;13.326;2022-10-12T17:02:57;101734.38;;;10.58;82.18
44359;BME280;30077;52.474;13.326;2022-10-12T17:07:57;101735.50;;;10.49;82.98
44359;BME280;30077;52.474;13.326;2022-10-12T17:12:58;101742.81;;;10.43;83.58
44359;BME280;30077;52.474;13.326;2022-10-12T17:17:58;101735.91;;;10.35;84.49
44359;BME280;30077;52.474;13.326;2022-10-12T17:22:58;101730.78;;;10.28;84.98
44359;BME280;30077;52.474;13.326;2022-10-12T17:27:58;101733.59;;;10.20;85.98
44359;BME280;30077;52.474;13.326;2022-10-12T17:32:59;101734.72;;;10.11;86.72
44359;BME280;30077;52.474;13.326;2022-10-12T17:37:59;101733.13;;;10.04;87.50
44359;BME280;30077;52.474;13.326;2022-10-12T17:43:00;101725.25;;;10.00;88.12
44359;BME280;30077;52.474;13.326;2022-10-12T17:48:00;101719.13;;;9.96;88.73
44359;BME280;30077;52.474;13.326;2022-10-12T17:53:00;101717.53;;;9.89;89.68
44359;BME280;30077;52.474;13.326;2022-10-12T17:58:02;101716.75;;;9.84;89.73
44359;BME280;30077;52.474;13.326;2022-10-12T18:03:02;101716.94;;;9.76;90.62
44359;BME280;30077;52.474;13.326;2022-10-12T18:08:03;101719.72;;;9.72;91.41
44359;BME280;30077;52.474;13.326;2022-10-12T18:13:03;101714.53;;;9.65;91.89
44359;BME280;30077;52.474;13.326;2022-10-12T18:18:03;101716.47;;;9.60;92.38
44359;BME280;30077;52.474;13.326;2022-10-12T18:23:05;101709.53;;;9.53;93.17
44359;BME280;30077;52.474;13.326;2022-10-12T18:28:06;101698.94;;;9.50;93.56
44359;BME280;30077;52.474;13.326;2022-10-12T18:33:07;101699.13;;;9.43;93.43
44359;BME280;30077;52.474;13.326;2022-10-12T18:38:07;101699.25;;;9.38;93.97
44359;BME280;30077;52.474;13.326;2022-10-12T18:43:08;101694.06;;;9.32;94.67
44359;BME280;30077;52.474;13.326;2022-10-12T18:48:10;101695.97;;;9.27;95.15
44359;BME280;30077;52.474;13.326;2022-10-12T18:53:10;101693.31;;;9.25;95.48
44359;BME280;30077;52.474;13.326;2022-10-12T18:58:10;101690.75;;;9.21;95.93
44359;BME280;30077;52.474;13.326;2022-10-12T19:03:11;101692.56;;;9.19;96.14
44359;BME280;30077;52.474;13.326;2022-10-12T19:08:12;101689.13;;;9.15;96.34
44359;BME280;30077;52.474;13.326;2022-10-12T19:13:12;101677.69;;;9.10;96.70
44359;BME280;30077;52.474;13.326;2022-10-12T19:18:12;101676.94;;;9.03;97.14
44359;BME280;30077;52.474;13.326;2022-10-12T19:23:12;101676.19;;;8.98;97.46
44359;BME280;30077;52.474;13.326;2022-10-12T19:28:12;101679.91;;;8.89;98.08
44359;BME280;30077;52.474;13.326;2022-10-12T19:33:13;101675.69;;;8.81;98.40
44359;BME280;30077;52.474;13.326;2022-10-12T19:38:13;101668.69;;;8.77;99.15
44359;BME280;30077;52.474;13.326;2022-10-12T19:43:15;101673.13;;;8.75;99.45
44359;BME280;30077;52.474;13.326;2022-10-12T19:48:15;101679.44;;;8.71;99.45
44359;BME280;30077;52.474;13.326;2022-10-12T19:53:16;101667.13;;;8.66;99.83
44359;BME280;30077;52.474;13.326;2022-10-12T19:58:16;101657.41;;;8.64;99.97
44359;BME280;30077;52.474;13.326;2022-10-12T20:03:16;101658.38;;;8.61;100.00
44359;BME280;30077;52.474;13.326;2022-10-12T20:08:18;101650.38;;;8.61;100.00
44359;BME280;30077;52.474;13.326;2022-10-12T20:13:18;101653.69;;;8.73;99.95
44359;BME280;30077;52.474;13.326;2022-10-12T20:18:19;101652.78;;;8.74;99.44
44359;BME280;30077;52.474;13.326;2022-10-12T20:23:20;101654.53;;;8.75;99.12
44359;BME280;30077;52.474;13.326;2022-10-12T20:28:21;101657.16;;;8.76;98.89
44359;BME280;30077;52.474;13.326;2022-10-12T20:33:21;101649.28;;;8.72;98.77
44359;BME280;30077;52.474;13.326;2022-10-12T20:38:22;101648.50;;;8.66;99.14
44359;BME280;30077;52.474;13.326;2022-10-12T20:43:22;101644.28;;;8.56;99.56
44359;BME280;30077;52.474;13.326;2022-10-12T20:48:22;101639.09;;;8.50;100.00
44359;BME280;30077;52.474;13.326;2022-10-12T20:53:23;101629.44;;;8.44;100.00
44359;BME280;30077;52.474;13.326;2022-10-12T20:58:23;101630.38;;;8.42;100.00
44359;BME280;30077;52.474;13.326;2022-10-12T21:03:23;101622.50;;;8.37;100.00
44359;BME280;30077;52.474;13.326;2022-10-12T21:08:23;101618.09;;;8.35;100.00
44359;BME280;30077;52.474;13.326;2022-10-12T21:13:24;101611.09;;;8.31;100.00
44359;BME280;30077;52.474;13.326;2022-10-12T21:18:24;101612.97;;;8.26;100.00
44359;BME280;30077;52.474;13.326;2022-10-12T21:23:25;101609.59;;;8.17;100.00
44359;BME280;30077;52.474;13.326;2022-10-12T21:28:26;101604.41;;;8.11;100.00
44359;BME280;30077;52.474;13.326;2022-10-12T21:33:26;101607.06;;;8.11;100.00
44359;BME280;30077;52.474;13.326;2022-10-12T21:38:29;101609.78;;;8.08;100.00
44359;BME280;30077;52.474;13.326;2022-10-12T21:43:29;101617.75;;;8.08;100.00
44359;BME280;30077;52.474;13.326;2022-10-12T21:48:31;101618.72;;;8.04;100.00
44359;BME280;30077;52.474;13.326;2022-10-12T21:53:33;101620.56;;;8.01;100.00
44359;BME280;30077;52.474;13.326;2022-10-12T21:58:34;101620.66;;;7.96;100.00
44359;BME280;30077;52.474;13.326;2022-10-12T22:03:34;101611.88;;;7.91;100.00
44359;BME280;30077;52.474;13.326;2022-10-12T22:08:34;101624.38;;;7.86;100.00
44359;BME280;30077;52.474;13.326;2022-10-12T22:13:37;101612.06;;;7.82;100.00
44359;BME280;30077;52.474;13.326;2022-10-12T22:18:38;101607.66;;;7.81;100.00
44359;BME280;30077;52.474;13.326;2022-10-12T22:23:39;101591.78;;;7.78;100.00
44359;BME280;30077;52.474;13.326;2022-10-12T22:28:40;101596.28;;;7.72;100.00
44359;BME280;30077;52.474;13.326;2022-10-12T22:33:40;101596.31;;;7.69;100.00
44359;BME280;30077;52.474;13.326;2022-10-12T22:38:42;101592.91;;;7.64;100.00
44359;BME280;30077;52.474;13.326;2022-10-12T22:43:42;101594.78;;;7.59;100.00
44359;BME280;30077;52.474;13.326;2022-10-12T22:48:43;101586.00;;;7.54;100.00
44359;BME280;30077;52.474;13.326;2022-10-12T22:53:43;101584.34;;;7.47;100.00
44359;BME280;30077;52.474;13.326;2022-10-12T22:58:44;101576.47;;;7.42;100.00
44359;BME280;30077;52.474;13.326;2022-10-12T23:03:47;101584.47;;;7.39;100.00
44359;BME280;30077;52.474;13.326;2022-10-12T23:08:50;101570.38;;;7.36;100.00
44359;BME280;30077;52.474;13.326;2022-10-12T23:13:51;101574.91;;;7.31;100.00
44359;BME280;30077;52.474;13.326;2022-10-12T23:18:54;101572.31;;;7.28;100.00
44359;BME280;30077;52.474;13.326;2022-10-12T23:23:56;101566.16;;;7.24;100.00
44359;BME280;30077;52.474;13.326;2022-10-12T23:28:57;101565.28;;;7.23;100.00
44359;BME280;30077;52.474;13.326;2022-10-12T23:34:00;101567.91;;;7.25;100.00
44359;BME280;30077;52.474;13.326;2022-10-12T23:39:02;101569.78;;;7.18;100.00
44359;BME280;30077;52.474;13.326;2022-10-12T23:44:03;101567.22;;;7.15;100.00
44359;BME280;30077;52.474;13.326;2022-10-12T23:49:03;101561.94;;;7.12;100.00
44359;BME280;30077;52.474;13.326;2022-10-12T23:54:04;101558.44;;;7.10;100.00
44359;BME280;30077;52.474;13.326;2022-10-12T23:59:04;101560.25;;;7.08;100.00
